Flugplatz Meinerzhagen

Für EDKZ sind keine METAR/TAF Berichte vorhanden.
Es werden die Flugwettermeldungen vom Flugplatz Cologne Bonn in 41 km Entfernung angezeigt.

Bericht für EDDK

vom 23.08. um 12:50 UTC

variable Windrichtung mit 5 kt

Sichtweite 10 km oder mehr

gute Sicht, keine Wolken < 5000 ft, keine CB, keine Wettererscheinungen (CAVOK)

Temperatur 27.0°C

Taupunkt 9.0°C

Luftfeuchtigkeit 32%

Luftdruck 1024 hPa

keine wesentliche Wetteränderung innerhalb den nächsten 2 Stunden zu erwarten

EDDK 231250Z VRB05KT CAVOK 27/09 Q1024 NOSIG

Prognose für EDDK

vom 23.08. um 00:00 UTC

Zwischen 00:00 UTC und 00:00 UTC

variable Windrichtung mit 3 kt

Sichtweite 10 km oder mehr

keine signifikanten Wettererscheinungen

keine Wolken


Am 24.08. zwischen 00:00 und 00:00 UTC übergehend zu

Wind 6 kt aus 120°

Sichtweite 10 km oder mehr

keine signifikanten Wettererscheinungen

keine Wolken

TAF EDDK 231100Z 2312/2418 VRB03KT CAVOK BECMG 2406/2409 12006KT
Impressum